LTAT Airport Information

Runway Information
Runway 03 Length 10990 ft width 148 ft
Elevation 2828 ft Threshold 0 ft Heading 31
Runway 21 Length 10990 ft Width 148 ft
Elevation 2757 ft Threshold 0 ft Heading 211
Airport Frequencies
Type APP Name APP Frequency 122.1 MHZ
Type ATIS Name ATIS Frequency 128.35 MHZ
Type GND Name GND Frequency 121.95 MHZ
Type TWR Name TWR Frequency 122.1 MHZ
Airport Navaids
Type NDB Name Erhac Frequency 421 KHZ
Type VOR Name Malatya Frequency 112000 KHZ
Type TACAN Name Erhac Frequency 113500 KHZ
Airport Weather Information & NOTAM
ADDS - METARS form results

(2026 UTC 16 July 2018)
 
METAR text: LTAT 161950Z 31017KT CAVOK 26/08 Q1008 NOSIG RMK RWY03 31015KT
Conditions at: LTAT (MALATYA/ERHAC (A, TR) observed 1950 UTC 16 July 2018
Temperature: 26.0°C (79°F)
Dewpoint: 8.0°C (46°F) [RH = 32%]
Pressure (altimeter): 29.76 inches Hg (1008.0 mb)
Winds: from the NW (310 degrees) at 20 MPH (17 knots; 8.8 m/s)
Visibility: 6 or more miles (10+ km)
Ceiling: ceiling and visibility are OK
Clouds: unknown
Weather: no significant weather observed at this time